Terminal Aerodrome Forecast
Issued by NWS Sioux Falls, SD

Home | Current Version | Previous Version | Graphics & Text | Print | Product List | Glossary On
Versions: 1 2 3 4 5 6 7 8 9 10 11 12 13
117
FTUS43 KFSD 021133
TAFHON
TAF
KHON 021133Z 0212/0312 VRB03KT P6SM BKN200
     FM021800 21006KT P6SM SCT070 OVC150
      TEMPO 0220/0222 P6SM -SHRA BKN070
     FM030300 24004KT P6SM SKC=

USA.gov is the U.S. government's official web portal to all federal, state and local government web resources and services.